Time;durP1;ratioP1;P1;durP2;ratioP2;P2;SDS_P1;SDS_P2;PMS_P1;PMS_P2;Temp;Humidity;BMP_temperature;BMP_pressure;BME280_temperature;BME280_humidity;BME280_pressure;Samples;Min_cycle;Max_cycle;Signal;HPM_P1;HPM_P2
2022/12/24 00:00:04;;;;;;;20.38;4.60;;;;;;;11.60;100.00;100221.91;4995871;28;20815;-72
2022/12/24 00:02:31;;;;;;;20.17;5.35;;;;;;;11.58;100.00;100227.06;4992512;28;20054;-72
2022/12/24 00:04:58;;;;;;;22.52;5.35;;;;;;;11.53;100.00;100235.84;4995177;28;20061;-72
2022/12/24 00:07:27;;;;;;;18.63;4.05;;;;;;;11.49;100.00;100239.88;4998279;28;20156;-71
2022/12/24 00:09:53;;;;;;;11.30;3.75;;;;;;;11.46;100.00;100235.16;4989510;28;20061;-72
2022/12/24 00:12:20;;;;;;;20.77;4.85;;;;;;;11.51;100.00;100243.03;4989340;28;20105;-72
2022/12/24 00:14:46;;;;;;;17.65;3.67;;;;;;;11.48;100.00;100250.16;4994334;28;20050;-70
2022/12/24 00:17:13;;;;;;;14.45;2.92;;;;;;;11.45;100.00;100252.97;4999299;28;20057;-73
2022/12/24 00:19:39;;;;;;;8.30;2.42;;;;;;;11.49;100.00;100259.25;5002388;28;20060;-71
2022/12/24 00:22:06;;;;;;;15.90;3.53;;;;;;;11.45;100.00;100261.28;4982740;28;20049;-71
2022/12/24 00:24:32;;;;;;;25.90;6.10;;;;;;;11.57;100.00;100253.22;4994198;28;20060;-72
2022/12/24 00:26:59;;;;;;;22.55;5.53;;;;;;;11.50;100.00;100269.13;5004864;28;20058;-72
2022/12/24 00:29:25;;;;;;;20.30;4.38;;;;;;;11.53;100.00;100249.72;5000737;28;20050;-73
2022/12/24 00:31:52;;;;;;;7.32;2.58;;;;;;;11.55;100.00;100255.63;4995589;28;20068;-70
2022/12/24 00:34:19;;;;;;;29.95;5.95;;;;;;;11.62;100.00;100238.94;4993340;28;20512;-71
2022/12/24 00:36:45;;;;;;;22.30;4.15;;;;;;;11.51;100.00;100254.09;4985693;28;20675;-73
2022/12/24 00:39:12;;;;;;;24.05;4.57;;;;;;;11.62;100.00;100255.56;4992840;28;20055;-72
2022/12/24 00:41:38;;;;;;;29.40;4.97;;;;;;;11.63;100.00;100256.34;4995616;28;20085;-69
2022/12/24 00:44:08;;;;;;;18.08;5.18;;;;;;;11.62;100.00;100254.78;4993073;28;20053;-72
2022/12/24 00:46:37;;;;;;;23.83;5.45;;;;;;;11.69;100.00;100265.78;5001431;28;20064;-71
2022/12/24 00:49:05;;;;;;;15.85;3.50;;;;;;;11.67;100.00;100260.66;4998382;28;20058;-72
2022/12/24 00:51:33;;;;;;;27.90;6.68;;;;;;;11.71;100.00;100266.16;5000927;28;20065;-71
2022/12/24 00:54:04;;;;;;;15.05;3.22;;;;;;;11.77;100.00;100261.69;4999093;28;20133;-73
2022/12/24 00:56:31;;;;;;;16.13;4.55;;;;;;;11.76;100.00;100263.69;4994781;28;20116;-71
2022/12/24 00:58:58;;;;;;;22.90;5.35;;;;;;;11.81;100.00;100288.16;4993839;28;20054;-71
2022/12/24 01:01:25;;;;;;;21.42;3.55;;;;;;;11.83;100.00;100291.31;5006974;28;20875;-71
2022/12/24 01:05:08;;;;;;;16.98;4.93;;;;;;;11.79;100.00;100296.13;5006807;28;20068;-71
2022/12/24 01:06:39;;;;;;;33.30;6.95;;;;;;;11.81;100.00;100292.94;4987094;28;20050;-71
2022/12/24 01:09:05;;;;;;;13.43;3.15;;;;;;;11.68;100.00;100312.09;5005115;28;20051;-73
2022/12/24 01:11:32;;;;;;;33.60;8.07;;;;;;;11.61;100.00;100311.38;4996018;28;20058;-72
2022/12/24 01:13:58;;;;;;;23.40;5.20;;;;;;;11.74;100.00;100324.28;4991198;28;20159;-70
2022/12/24 01:16:25;;;;;;;26.45;4.97;;;;;;;11.81;100.00;100315.88;4990594;28;20058;-72
2022/12/24 01:18:52;;;;;;;23.25;4.13;;;;;;;11.70;100.00;100317.22;4998175;28;20056;-73
2022/12/24 01:21:18;;;;;;;31.08;6.07;;;;;;;11.75;100.00;100336.19;4992009;28;20046;-72
2022/12/24 01:23:45;;;;;;;30.20;6.07;;;;;;;11.70;100.00;100334.63;4990923;28;20058;-71
2022/12/24 01:26:11;;;;;;;17.90;4.50;;;;;;;11.75;100.00;100334.16;4991321;28;20754;-72
2022/12/24 01:28:39;;;;;;;22.27;5.82;;;;;;;11.64;100.00;100338.28;4994575;28;20826;-73
2022/12/24 01:31:14;;;;;;;30.92;5.32;;;;;;;11.75;100.00;100358.34;4993718;28;20068;-70
2022/12/24 01:33:41;;;;;;;7.03;2.40;;;;;;;11.67;100.00;100348.53;5000481;28;20057;-69
2022/12/24 01:36:09;;;;;;;30.98;5.57;;;;;;;11.65;100.00;100354.47;5000916;28;20056;-72
2022/12/24 01:38:35;;;;;;;23.17;5.82;;;;;;;11.64;100.00;100360.47;5004635;28;20495;-72
2022/12/24 01:43:47;;;;;;;19.98;5.60;;;;;;;11.69;100.00;100366.34;4994241;28;20085;-71
2022/12/24 01:46:29;;;;;;;21.67;5.40;;;;;;;11.61;100.00;100369.56;4995362;28;20156;-71
2022/12/24 01:49:03;;;;;;;18.70;4.13;;;;;;;11.66;100.00;100378.25;4986316;28;20081;-71
2022/12/24 01:51:37;;;;;;;24.75;6.55;;;;;;;11.57;100.00;100382.66;5003332;28;20558;-70
2022/12/24 01:54:14;;;;;;;27.45;5.43;;;;;;;11.57;100.00;100377.91;4988328;28;20053;-72
2022/12/24 01:56:47;;;;;;;10.38;3.80;;;;;;;11.60;100.00;100376.28;4997405;28;20056;-71
2022/12/24 01:59:17;;;;;;;16.88;4.00;;;;;;;11.57;100.00;100380.69;4994021;28;21063;-72
2022/12/24 02:01:45;;;;;;;24.42;5.93;;;;;;;11.51;100.00;100376.00;4997802;28;20180;-73
2022/12/24 02:04:23;;;;;;;31.23;6.45;;;;;;;11.45;100.00;100394.25;5001656;28;20875;-72
2022/12/24 02:06:50;;;;;;;21.70;5.35;;;;;;;11.51;100.00;100387.09;4987746;28;20840;-74
2022/12/24 02:09:17;;;;;;;26.60;5.78;;;;;;;11.44;100.00;100387.94;4997500;28;20124;-73
2022/12/24 02:11:43;;;;;;;17.55;3.55;;;;;;;11.48;100.00;100393.44;4998997;28;20064;-71
2022/12/24 02:14:12;;;;;;;16.23;4.28;;;;;;;11.48;100.00;100405.28;4986864;28;20120;-70
2022/12/24 02:16:56;;;;;;;14.90;4.30;;;;;;;11.45;100.00;100399.81;4988368;28;20057;-72
2022/12/24 02:19:33;;;;;;;22.77;4.07;;;;;;;11.39;100.00;100409.75;4990222;28;20049;-72
2022/12/24 02:22:14;;;;;;;28.42;6.00;;;;;;;11.39;100.00;100402.22;4991074;28;20060;-71
2022/12/24 02:24:43;;;;;;;13.48;3.17;;;;;;;11.42;100.00;100411.69;4998033;28;20056;-70
2022/12/24 02:27:23;;;;;;;30.42;4.72;;;;;;;11.44;100.00;100409.31;4983695;28;20041;-70
2022/12/24 02:30:25;;;;;;;22.52;5.63;;;;;;;11.30;100.00;100409.47;4993219;28;20058;-71
2022/12/24 02:33:12;;;;;;;35.60;4.55;;;;;;;11.38;100.00;100422.03;4971128;28;20046;-71
2022/12/24 02:36:09;;;;;;;19.55;3.90;;;;;;;11.29;100.00;100428.03;5003780;28;20072;-69
2022/12/24 02:38:38;;;;;;;18.65;5.07;;;;;;;11.22;100.00;100430.88;4989155;28;20878;-72
2022/12/24 02:41:14;;;;;;;20.25;2.30;;;;;;;11.22;100.00;100436.41;4983798;28;20046;-71
2022/12/24 02:43:44;;;;;;;17.42;3.70;;;;;;;11.20;100.00;100435.25;4992178;28;20045;-70
2022/12/24 02:46:19;;;;;;;25.02;5.25;;;;;;;11.09;100.00;100443.63;5004903;28;20054;-70
2022/12/24 02:48:48;;;;;;;28.77;6.00;;;;;;;11.16;100.00;100445.56;4994217;28;20217;-71
2022/12/24 02:51:15;;;;;;;18.83;4.45;;;;;;;11.11;100.00;100438.50;4991538;28;20046;-73
2022/12/24 02:53:42;;;;;;;16.05;4.20;;;;;;;11.07;100.00;100451.53;4996326;28;20045;-72
2022/12/24 02:56:18;;;;;;;13.43;3.88;;;;;;;11.08;100.00;100453.16;4994531;28;20049;-72
2022/12/24 02:59:03;;;;;;;16.02;5.10;;;;;;;11.03;100.00;100455.56;4988321;28;20050;-71
2022/12/24 03:01:39;;;;;;;24.67;4.75;;;;;;;11.07;100.00;100451.53;4994016;28;20057;-70
2022/12/24 03:04:38;;;;;;;28.67;5.70;;;;;;;11.07;100.00;100461.84;5002557;28;20585;-70
2022/12/24 03:07:17;;;;;;;31.77;6.80;;;;;;;11.02;100.00;100462.28;5001655;28;20089;-71
2022/12/24 03:09:55;;;;;;;8.82;3.00;;;;;;;11.08;100.00;100457.88;5017696;28;20064;-70
2022/12/24 03:12:42;;;;;;;39.75;8.52;;;;;;;11.07;100.00;100470.16;5019239;28;20051;-72
2022/12/24 03:15:13;;;;;;;13.30;3.10;;;;;;;11.06;100.00;100463.03;5005597;28;20110;-71
2022/12/24 03:17:42;;;;;;;27.75;5.38;;;;;;;11.11;100.00;100454.31;5027943;28;20422;-73
2022/12/24 03:20:13;;;;;;;26.30;4.82;;;;;;;11.15;100.00;100455.06;5013802;28;20506;-72
2022/12/24 03:22:40;;;;;;;21.88;5.47;;;;;;;11.06;100.00;100460.25;5011617;28;20057;-72
2022/12/24 03:25:07;;;;;;;22.33;5.78;;;;;;;11.04;100.00;100457.94;5008214;28;20053;-73
2022/12/24 03:27:35;;;;;;;11.27;3.25;;;;;;;11.12;100.00;100462.22;5006597;28;20052;-70
2022/12/24 03:30:07;;;;;;;8.98;3.25;;;;;;;11.09;100.00;100460.25;5019668;28;20049;-71
2022/12/24 03:32:33;;;;;;;13.43;4.25;;;;;;;11.06;100.00;100458.28;5027924;28;20060;-71
2022/12/24 03:35:00;;;;;;;17.50;4.85;;;;;;;11.16;100.00;100476.81;5020534;28;20417;-74
2022/12/24 03:37:26;;;;;;;25.42;6.22;;;;;;;11.12;100.00;100476.06;5016588;28;20413;-71
2022/12/24 03:39:53;;;;;;;23.85;5.35;;;;;;;11.19;100.00;100484.31;5016783;28;20052;-69
2022/12/24 03:42:19;;;;;;;13.20;3.17;;;;;;;11.14;100.00;100500.56;5014258;28;20057;-70
2022/12/24 03:44:46;;;;;;;31.13;5.55;;;;;;;11.09;100.00;100499.00;5016438;28;20060;-71
2022/12/24 03:47:13;;;;;;;9.38;3.33;;;;;;;11.16;100.00;100495.41;5015638;28;20501;-69
2022/12/24 03:49:39;;;;;;;23.60;5.72;;;;;;;11.12;100.00;100491.88;5017345;28;20582;-70
2022/12/24 03:52:06;;;;;;;10.93;3.63;;;;;;;11.13;100.00;100482.38;5014575;28;20080;-71
2022/12/24 03:54:32;;;;;;;22.25;4.53;;;;;;;11.11;100.00;100498.59;5014535;28;20863;-71
2022/12/24 03:56:59;;;;;;;31.20;6.32;;;;;;;11.24;100.00;100499.72;5015668;28;20053;-70
2022/12/24 03:59:26;;;;;;;35.03;6.50;;;;;;;11.24;100.00;100502.47;5014484;28;20066;-72
2022/12/24 04:01:53;;;;;;;25.60;4.75;;;;;;;11.21;100.00;100503.28;5017751;28;20447;-73
2022/12/24 04:04:20;;;;;;;26.10;4.53;;;;;;;11.18;100.00;100504.09;5021945;28;20125;-72
2022/12/24 04:06:46;;;;;;;23.40;4.53;;;;;;;11.23;100.00;100509.97;5026980;28;20160;-70
2022/12/24 04:09:13;;;;;;;23.98;3.85;;;;;;;11.22;100.00;100499.31;5009632;28;20049;-72
2022/12/24 04:11:39;;;;;;;13.48;3.55;;;;;;;11.21;100.00;100495.78;5017505;28;20056;-71
2022/12/24 04:14:05;;;;;;;25.08;4.93;;;;;;;11.24;100.00;100500.47;5007261;28;20050;-70
2022/12/24 04:16:32;;;;;;;28.35;5.53;;;;;;;11.28;100.00;100495.72;5013644;28;20056;-73
2022/12/24 04:18:58;;;;;;;16.50;3.30;;;;;;;11.20;100.00;100499.72;5007244;28;20599;-72
2022/12/24 04:21:25;;;;;;;25.92;5.40;;;;;;;11.23;100.00;100509.97;5007644;28;20054;-72
2022/12/24 04:23:51;;;;;;;31.52;4.38;;;;;;;11.30;100.00;100500.84;5011780;28;20049;-71
2022/12/24 04:26:18;;;;;;;17.83;2.67;;;;;;;11.23;100.00;100515.53;5019373;28;20041;-73
2022/12/24 04:28:45;;;;;;;11.07;2.50;;;;;;;11.17;100.00;100513.59;5015414;28;20049;-72
2022/12/24 04:31:14;;;;;;;17.67;3.53;;;;;;;11.21;100.00;100519.91;5028178;28;20061;-71
2022/12/24 04:33:41;;;;;;;23.60;4.82;;;;;;;11.29;100.00;100522.22;5027426;28;20061;-71
2022/12/24 04:36:12;;;;;;;23.75;3.63;;;;;;;11.26;100.00;100533.31;5013931;28;20049;-73
2022/12/24 04:38:39;;;;;;;12.15;2.92;;;;;;;11.20;100.00;100537.72;5015796;28;20050;-74
2022/12/24 04:41:27;;;;;;;16.08;3.38;;;;;;;11.21;100.00;100529.00;5015542;28;20046;-71
2022/12/24 04:43:54;;;;;;;30.42;4.57;;;;;;;11.17;100.00;100536.53;5008377;28;20132;-72
2022/12/24 04:46:24;;;;;;;20.52;3.25;;;;;;;11.28;100.00;100533.69;5021591;28;20053;-71
2022/12/24 04:48:52;;;;;;;12.52;2.65;;;;;;;11.25;100.00;100529.75;5019482;28;20072;-71
2022/12/24 04:51:19;;;;;;;7.65;1.73;;;;;;;11.22;100.00;100540.84;5014433;28;20768;-72
2022/12/24 04:53:46;;;;;;;11.23;3.20;;;;;;;11.21;100.00;100531.78;5024797;28;20764;-72
2022/12/24 04:56:17;;;;;;;21.73;4.15;;;;;;;11.15;100.00;100535.34;5011059;28;20045;-70
2022/12/24 04:58:44;;;;;;;24.38;3.30;;;;;;;11.19;100.00;100536.13;5018307;28;20045;-73
2022/12/24 05:01:14;;;;;;;14.02;3.38;;;;;;;11.16;100.00;100531.38;5019706;28;20049;-70
2022/12/24 05:03:40;;;;;;;18.08;3.80;;;;;;;11.23;100.00;100542.41;5009457;28;20137;-70
2022/12/24 05:06:11;;;;;;;8.18;1.98;;;;;;;11.20;100.00;100535.72;5027453;28;20060;-70
2022/12/24 05:08:38;;;;;;;14.20;2.85;;;;;;;11.19;100.00;100536.13;5017545;28;20050;-71
2022/12/24 05:11:05;;;;;;;37.28;6.22;;;;;;;11.24;100.00;100538.47;5018837;28;20929;-68
2022/12/24 05:13:32;;;;;;;16.85;3.92;;;;;;;11.18;100.00;100551.16;5017840;28;20053;-73
2022/12/24 05:16:10;;;;;;;20.33;4.57;;;;;;;11.17;100.00;100547.59;5014606;28;20053;-70
2022/12/24 05:18:37;;;;;;;16.33;4.07;;;;;;;11.18;100.00;100545.63;5008316;28;20057;-72
2022/12/24 05:21:09;;;;;;;18.08;3.95;;;;;;;11.16;100.00;100545.22;5002651;28;20052;-72
2022/12/24 05:26:37;;;;;;;16.45;4.28;;;;;;;11.11;100.00;100546.47;5014270;28;20072;-72
2022/12/24 05:29:04;;;;;;;12.85;3.05;;;;;;;11.07;100.00;100542.91;5021116;28;20045;-71
2022/12/24 05:31:32;;;;;;;14.70;2.90;;;;;;;11.07;100.00;100550.44;5027914;28;20063;-73
2022/12/24 05:34:00;;;;;;;14.60;3.50;;;;;;;11.00;100.00;100550.50;5018333;28;20050;-71
2022/12/24 05:36:26;;;;;;;19.52;4.85;;;;;;;10.95;100.00;100548.13;5013416;28;20100;-71
2022/12/24 05:38:53;;;;;;;5.65;2.63;;;;;;;10.98;100.00;100556.44;5028824;28;20053;-70
2022/12/24 05:41:21;;;;;;;12.65;3.85;;;;;;;10.95;100.00;100548.13;5021439;28;20053;-71
2022/12/24 05:43:48;;;;;;;19.17;4.25;;;;;;;11.05;100.00;100558.38;5016923;28;20045;-71
2022/12/24 05:46:17;;;;;;;22.15;5.13;;;;;;;11.01;100.00;100563.13;5027255;28;20053;-70
2022/12/24 05:48:45;;;;;;;10.70;2.70;;;;;;;10.99;100.00;100569.06;5027353;28;20149;-72
2022/12/24 05:51:13;;;;;;;24.60;6.28;;;;;;;11.06;100.00;100565.47;5025440;28;20071;-71
2022/12/24 05:53:40;;;;;;;14.35;3.72;;;;;;;11.00;100.00;100570.66;5021197;28;20136;-69
2022/12/24 05:56:08;;;;;;;19.17;5.28;;;;;;;11.03;100.00;100589.22;5018504;28;20073;-70
2022/12/24 05:58:39;;;;;;;3.03;1.70;;;;;;;11.05;100.00;100581.31;5026190;28;20068;-70
2022/12/24 06:01:07;;;;;;;17.52;4.65;;;;;;;11.04;100.00;100582.50;5027312;28;20053;-69
2022/12/24 06:03:34;;;;;;;16.63;3.92;;;;;;;11.00;100.00;100575.41;5012133;28;20050;-71
2022/12/24 06:06:27;;;;;;;14.70;2.83;;;;;;;11.07;100.00;100578.91;5010165;28;20071;-72
2022/12/24 06:08:54;;;;;;;9.35;3.45;;;;;;;11.03;100.00;100569.84;5024431;28;20046;-72
2022/12/24 06:11:23;;;;;;;16.95;3.97;;;;;;;11.08;100.00;100579.72;5021001;28;20499;-72
2022/12/24 06:13:51;;;;;;;12.75;4.40;;;;;;;11.12;100.00;100584.03;5008034;28;20054;-72
2022/12/24 06:16:19;;;;;;;15.07;3.63;;;;;;;11.07;100.00;100592.75;5018764;28;20062;-72
2022/12/24 06:18:46;;;;;;;18.45;3.72;;;;;;;11.13;100.00;100584.84;5010038;28;20050;-72
2022/12/24 06:21:13;;;;;;;11.95;2.33;;;;;;;11.06;100.00;100602.25;5017986;28;20057;-72
2022/12/24 06:23:41;;;;;;;20.48;3.85;;;;;;;11.13;100.00;100596.69;5015714;28;20132;-70
2022/12/24 06:26:11;;;;;;;20.17;5.32;;;;;;;11.07;100.00;100601.06;5018196;28;20446;-70
2022/12/24 06:28:38;;;;;;;11.18;3.55;;;;;;;11.12;100.00;100627.53;5011049;28;20058;-73
2022/12/24 06:31:06;;;;;;;10.23;2.92;;;;;;;11.11;100.00;100624.00;5017313;28;20041;-72
2022/12/24 06:33:33;;;;;;;10.27;2.75;;;;;;;11.15;100.00;100621.22;5015330;28;20815;-72
2022/12/24 06:36:00;;;;;;;13.38;3.97;;;;;;;11.15;100.00;100629.50;5017857;28;20424;-71
2022/12/24 06:38:29;;;;;;;18.20;4.60;;;;;;;11.12;100.00;100642.19;5016137;28;20100;-72
2022/12/24 06:40:56;;;;;;;27.00;5.40;;;;;;;11.27;100.00;100620.75;5019308;28;20140;-73
2022/12/24 06:43:23;;;;;;;9.50;1.85;;;;;;;11.25;100.00;100621.16;5013346;28;20055;-72
2022/12/24 06:45:49;;;;;;;20.20;4.45;;;;;;;11.31;100.00;100627.84;5015900;28;20129;-70
2022/12/24 06:48:16;;;;;;;27.70;5.10;;;;;;;11.26;100.00;100624.69;5015149;28;20049;-73
2022/12/24 06:50:42;;;;;;;8.38;2.38;;;;;;;11.32;100.00;100628.63;5008380;28;20557;-71
2022/12/24 06:53:09;;;;;;;20.05;4.78;;;;;;;11.30;100.00;100636.56;5004800;28;20056;-73
2022/12/24 06:55:36;;;;;;;20.10;3.88;;;;;;;11.31;100.00;100640.91;5019870;28;20140;-72
2022/12/24 06:58:03;;;;;;;27.80;4.65;;;;;;;11.34;100.00;100654.72;5009857;28;20069;-72
2022/12/24 07:00:29;;;;;;;12.18;3.53;;;;;;;11.27;100.00;100657.53;5019398;28;20053;-72
2022/12/24 07:02:56;;;;;;;13.90;3.92;;;;;;;11.30;100.00;100653.97;5027963;28;20049;-70
2022/12/24 07:05:23;;;;;;;19.13;3.47;;;;;;;11.35;100.00;100638.91;5023997;28;20049;-68
2022/12/24 07:07:49;;;;;;;26.63;5.60;;;;;;;11.26;100.00;100650.44;5017291;28;20830;-71
2022/12/24 07:10:17;;;;;;;26.45;6.15;;;;;;;11.39;100.00;100643.25;5006800;28;20042;-69
2022/12/24 07:12:44;;;;;;;22.55;4.30;;;;;;;11.35;100.00;100644.44;5008447;28;20133;-70
2022/12/24 07:15:14;;;;;;;14.18;3.75;;;;;;;11.36;100.00;100668.19;5019907;28;20049;-71
2022/12/24 07:17:40;;;;;;;25.52;5.15;;;;;;;11.41;100.00;100642.84;5015945;28;20340;-71
2022/12/24 07:20:10;;;;;;;24.52;4.00;;;;;;;11.38;100.00;100652.75;5018339;28;20049;-72
2022/12/24 07:22:37;;;;;;;32.92;5.97;;;;;;;11.43;100.00;100648.75;5024133;28;20108;-71
2022/12/24 07:25:04;;;;;;;19.58;5.43;;;;;;;11.32;100.00;100678.50;5012503;28;20049;-72
2022/12/24 07:27:30;;;;;;;22.60;5.00;;;;;;;11.38;100.00;100654.72;5018720;28;20053;-69
2022/12/24 07:29:57;;;;;;;23.48;6.15;;;;;;;11.44;100.00;100653.13;5011130;28;20054;-72
2022/12/24 07:32:23;;;;;;;16.67;3.88;;;;;;;11.32;100.00;100664.63;5013104;28;20050;-73
2022/12/24 07:34:50;;;;;;;15.45;3.75;;;;;;;11.30;100.00;100673.34;5008391;28;20516;-73
2022/12/24 07:37:16;;;;;;;15.25;2.90;;;;;;;11.31;100.00;100685.22;5007560;28;20073;-71
2022/12/24 07:39:43;;;;;;;21.27;3.97;;;;;;;11.38;100.00;100685.19;5005225;28;20046;-73
2022/12/24 07:42:13;;;;;;;13.02;2.72;;;;;;;11.31;100.00;100676.91;5006765;28;20100;-72
2022/12/24 07:44:40;;;;;;;28.25;6.40;;;;;;;11.28;100.00;100677.72;5009085;28;20232;-68
2022/12/24 07:47:06;;;;;;;15.52;4.38;;;;;;;11.34;100.00;100696.28;5015858;28;20828;-73
2022/12/24 07:49:33;;;;;;;16.98;5.25;;;;;;;11.38;100.00;100704.59;5016402;28;20046;-73
2022/12/24 07:52:00;;;;;;;10.80;3.40;;;;;;;11.41;100.00;100692.69;5005924;28;20050;-70
2022/12/24 07:54:27;;;;;;;16.17;3.75;;;;;;;11.40;100.00;100691.09;5012667;28;20132;-70
2022/12/24 07:56:53;;;;;;;23.30;4.15;;;;;;;11.44;100.00;100695.44;5008114;28;20054;-69
2022/12/24 07:59:20;;;;;;;20.40;4.53;;;;;;;11.32;100.00;100703.41;5007277;28;20061;-71
2022/12/24 08:01:47;;;;;;;24.90;4.97;;;;;;;11.32;100.00;100692.34;5012631;28;20057;-72
2022/12/24 08:04:13;;;;;;;18.05;4.13;;;;;;;11.33;100.00;100699.44;5009810;28;20495;-71
2022/12/24 08:06:40;;;;;;;24.70;5.20;;;;;;;11.44;100.00;100708.53;5010216;28;20057;-73
2022/12/24 08:09:07;;;;;;;14.23;4.82;;;;;;;11.32;100.00;100728.34;5015371;28;20069;-71
2022/12/24 08:11:34;;;;;;;24.10;5.07;;;;;;;11.37;100.00;100727.94;5007191;28;20045;-73
2022/12/24 08:14:00;;;;;;;21.05;5.53;;;;;;;11.37;100.00;100748.13;5009827;28;20052;-70
2022/12/24 08:16:27;;;;;;;28.20;5.32;;;;;;;11.48;100.00;100731.44;5005035;28;20050;-71
2022/12/24 08:18:53;;;;;;;13.18;3.60;;;;;;;11.39;100.00;100739.41;5022514;28;20046;-72
2022/12/24 08:21:20;;;;;;;16.90;5.22;;;;;;;11.34;100.00;100751.69;5022000;28;20045;-72
2022/12/24 08:23:46;;;;;;;24.10;4.90;;;;;;;11.50;100.00;100748.44;5018257;28;20125;-71
2022/12/24 08:26:13;;;;;;;22.88;4.93;;;;;;;11.53;100.00;100745.69;5015880;28;20049;-72
2022/12/24 08:28:40;;;;;;;15.45;3.90;;;;;;;11.46;100.00;100758.75;5008950;28;20049;-71
2022/12/24 08:31:06;;;;;;;21.75;4.60;;;;;;;11.47;100.00;100752.81;5005116;28;20053;-72
2022/12/24 08:33:33;;;;;;;28.02;6.07;;;;;;;11.44;100.00;100780.56;5022235;28;20050;-73
2022/12/24 08:36:01;;;;;;;21.45;5.25;;;;;;;11.52;100.00;100765.47;5008769;28;20054;-70
2022/12/24 08:38:27;;;;;;;19.83;4.70;;;;;;;11.49;100.00;100774.59;5015919;28;20057;-74
2022/12/24 08:40:54;;;;;;;18.23;4.15;;;;;;;11.51;100.00;100783.28;5017882;28;20049;-71
2022/12/24 08:43:21;;;;;;;27.75;6.15;;;;;;;11.49;100.00;100788.44;5014693;28;20137;-73
2022/12/24 08:45:48;;;;;;;14.63;3.97;;;;;;;11.54;100.00;100779.72;5016510;28;20543;-73
2022/12/24 08:48:16;;;;;;;8.15;2.20;;;;;;;11.50;100.00;100787.25;5022542;28;20385;-71
2022/12/24 08:50:43;;;;;;;24.52;5.65;;;;;;;11.52;100.00;100779.31;5005863;28;20042;-70
2022/12/24 08:53:10;;;;;;;25.67;5.40;;;;;;;11.54;100.00;100783.28;5006540;28;20054;-71
2022/12/24 08:55:36;;;;;;;20.02;4.65;;;;;;;11.53;100.00;100790.00;5007417;28;20487;-71
2022/12/24 08:58:03;;;;;;;28.80;5.82;;;;;;;11.60;100.00;100789.97;5005388;28;20053;-70
2022/12/24 09:00:30;;;;;;;15.57;3.05;;;;;;;11.46;100.00;100801.13;5021504;28;20092;-72
2022/12/24 09:02:56;;;;;;;19.55;4.68;;;;;;;11.52;100.00;100799.53;5013340;28;20049;-72
2022/12/24 09:05:24;;;;;;;21.50;3.90;;;;;;;11.41;100.00;100798.75;5016593;28;20049;-73
2022/12/24 09:07:51;;;;;;;13.88;2.75;;;;;;;11.48;100.00;100809.03;5020084;28;20107;-71
2022/12/24 09:10:18;;;;;;;20.17;4.35;;;;;;;11.45;100.00;100807.88;5010539;28;20058;-71
2022/12/24 09:12:44;;;;;;;19.48;5.40;;;;;;;11.40;100.00;100807.47;5007114;28;20145;-72
2022/12/24 09:15:12;;;;;;;9.32;2.92;;;;;;;11.52;100.00;100818.13;5010779;28;20060;-71
2022/12/24 09:17:39;;;;;;;27.60;4.97;;;;;;;11.50;100.00;100818.53;5013853;28;20058;-71
2022/12/24 09:20:07;;;;;;;23.00;3.30;;;;;;;11.46;100.00;100819.72;5030308;28;20435;-70
2022/12/24 09:22:35;;;;;;;23.27;5.15;;;;;;;11.42;100.00;100822.50;5021273;28;20100;-71
2022/12/24 09:25:03;;;;;;;22.05;4.78;;;;;;;11.53;100.00;100819.69;5016329;28;20510;-72
2022/12/24 09:27:31;;;;;;;24.85;4.78;;;;;;;11.61;100.00;100830.38;5020330;28;20053;-70
2022/12/24 09:29:57;;;;;;;13.60;3.20;;;;;;;11.59;100.00;100843.84;5010458;28;20049;-72
2022/12/24 09:32:24;;;;;;;21.63;4.32;;;;;;;11.57;100.00;100845.41;5010110;28;20050;-71
2022/12/24 09:34:50;;;;;;;27.88;6.07;;;;;;;11.65;100.00;100849.78;5020406;28;20057;-72
2022/12/24 09:37:17;;;;;;;17.83;4.45;;;;;;;11.55;100.00;100848.59;5015534;28;20056;-72
2022/12/24 09:39:43;;;;;;;5.28;1.83;;;;;;;11.66;100.00;100854.94;5012471;28;20052;-72
2022/12/24 09:42:28;;;;;;;15.35;2.75;;;;;;;11.66;100.00;100859.66;5019077;28;20087;-71
2022/12/24 09:45:17;;;;;;;19.80;3.78;;;;;;;11.73;100.00;100867.97;5029471;28;20059;-71
2022/12/24 09:47:54;;;;;;;25.75;4.40;;;;;;;11.72;100.00;100869.16;5021701;28;20053;-72
2022/12/24 09:50:40;;;;;;;27.85;6.15;;;;;;;11.81;100.00;100864.75;5010619;28;20054;-73
2022/12/24 09:53:23;;;;;;;21.70;6.15;;;;;;;11.70;100.00;100863.22;5015149;28;20059;-72
2022/12/24 09:55:55;;;;;;;21.45;4.82;;;;;;;11.79;100.00;100871.91;5024408;28;20089;-72
2022/12/24 09:58:28;;;;;;;19.42;4.30;;;;;;;11.76;100.00;100873.50;5019321;28;20583;-73
2022/12/24 10:00:56;;;;;;;20.50;3.15;;;;;;;11.77;100.00;100886.16;5021556;28;20127;-73
2022/12/24 10:03:22;;;;;;;22.02;4.75;;;;;;;11.82;100.00;100885.78;5023327;28;20496;-72
2022/12/24 10:05:49;;;;;;;20.98;5.35;;;;;;;11.69;100.00;100889.34;5010833;28;20696;-70
2022/12/24 10:08:36;;;;;;;24.38;4.53;;;;;;;11.71;100.00;100892.53;5014907;28;20050;-73
2022/12/24 10:11:15;;;;;;;11.38;3.58;;;;;;;11.79;100.00;100897.66;5009798;28;20038;-71
2022/12/24 10:14:03;;;;;;;26.42;6.38;;;;;;;11.66;100.00;100909.56;5007560;28;20064;-71
2022/12/24 10:16:36;;;;;;;11.85;2.97;;;;;;;11.83;100.00;100903.97;5013796;28;20057;-70
2022/12/24 10:19:32;;;;;;;31.67;7.53;;;;;;;11.78;100.00;100895.28;5017794;28;20136;-69
2022/12/24 10:22:23;;;;;;;32.92;6.00;;;;;;;11.86;100.00;100891.28;5028143;28;20061;-71
2022/12/24 10:25:12;;;;;;;18.02;3.20;;;;;;;11.88;100.00;100898.00;5016673;28;20420;-72
2022/12/24 10:27:39;;;;;;;11.23;2.30;;;;;;;12.01;100.00;100903.88;5007069;28;20050;-71
2022/12/24 10:30:14;;;;;;;12.70;3.35;;;;;;;12.03;100.00;100899.53;5003175;28;20053;-70
2022/12/24 10:32:43;;;;;;;12.55;3.78;;;;;;;12.05;100.00;100904.69;5010582;28;20050;-73
2022/12/24 10:35:15;;;;;;;8.82;1.85;;;;;;;12.08;100.00;100909.44;5018295;28;20048;-72
2022/12/24 10:37:44;;;;;;;35.70;7.32;;;;;;;11.97;100.00;100917.78;5007438;28;20435;-73
2022/12/24 10:40:36;;;;;;;19.98;5.28;;;;;;;12.08;100.00;100904.66;5005830;28;20560;-70
2022/12/24 10:43:32;;;;;;;19.05;3.67;;;;;;;12.16;100.00;100914.56;5017551;28;20049;-71
2022/12/24 10:46:02;;;;;;;25.48;6.68;;;;;;;11.99;100.00;100907.09;4996851;28;20148;-74
2022/12/24 10:48:47;;;;;;;26.30;6.45;;;;;;;12.04;100.00;100903.88;4997879;28;20046;-71
2022/12/24 10:51:34;;;;;;;24.58;4.95;;;;;;;11.99;100.00;100900.75;4995520;28;20054;-72
2022/12/24 10:54:23;;;;;;;21.17;3.28;;;;;;;12.09;100.00;100892.38;5002884;28;20428;-70
2022/12/24 10:56:59;;;;;;;28.45;5.60;;;;;;;12.13;100.00;100904.25;5017341;28;20056;-72
2022/12/24 10:59:34;;;;;;;26.48;6.57;;;;;;;12.16;100.00;100894.34;5002074;28;20149;-72
2022/12/24 11:02:01;;;;;;;7.00;2.60;;;;;;;12.14;100.00;100894.72;4998755;28;20053;-71
2022/12/24 11:04:31;;;;;;;17.30;4.20;;;;;;;12.18;100.00;100892.72;4989740;28;20252;-71
2022/12/24 11:07:00;;;;;;;16.92;4.80;;;;;;;12.30;100.00;100889.50;4995072;28;20046;-71
2022/12/24 11:09:35;;;;;;;10.57;3.50;;;;;;;12.37;100.00;100888.66;5006722;28;20053;-71
2022/12/24 11:12:05;;;;;;;24.80;5.75;;;;;;;12.33;100.00;100887.91;5007833;28;20073;-69
2022/12/24 11:14:37;;;;;;;15.35;3.60;;;;;;;12.35;100.00;100896.59;5017830;28;20107;-72
2022/12/24 11:17:04;;;;;;;8.15;3.28;;;;;;;12.33;100.00;100899.00;5005958;28;20675;-71
2022/12/24 11:19:34;;;;;;;21.35;5.53;;;;;;;12.29;100.00;100901.00;5005002;28;20081;-71
2022/12/24 11:22:17;;;;;;;27.90;7.22;;;;;;;12.27;100.00;100906.16;5005144;28;20484;-71
2022/12/24 11:24:44;;;;;;;14.27;4.85;;;;;;;12.27;100.00;100903.38;5014787;28;20077;-71
2022/12/24 11:27:40;;;;;;;28.65;7.45;;;;;;;12.15;100.00;100892.75;5003690;28;20472;-71